createdAt,value
2022-09-06T00:00:41.457Z,17.41
2022-09-06T00:01:41.471Z,17.34
2022-09-06T00:02:42.611Z,17.34
2022-09-06T00:03:41.536Z,17.38
2022-09-06T00:04:41.431Z,17.36
2022-09-06T00:05:41.410Z,17.31
2022-09-06T00:06:41.410Z,17.19
2022-09-06T00:07:41.418Z,17.26
2022-09-06T00:08:41.449Z,17.19
2022-09-06T00:09:41.370Z,17.31
2022-09-06T00:10:41.378Z,17.30
2022-09-06T00:11:41.398Z,17.24
2022-09-06T00:12:41.373Z,17.26
2022-09-06T00:13:41.368Z,17.29
2022-09-06T00:14:41.362Z,17.26
2022-09-06T00:15:41.442Z,17.27
2022-09-06T00:16:41.348Z,17.22
2022-09-06T00:17:41.321Z,17.11
2022-09-06T00:18:41.318Z,17.04
2022-09-06T00:19:41.296Z,17.05
2022-09-06T00:20:41.304Z,17.06
2022-09-06T00:21:41.324Z,17.06
2022-09-06T00:22:41.275Z,16.97
2022-09-06T00:23:41.298Z,17.05
2022-09-06T00:24:41.273Z,17.09
2022-09-06T00:25:41.255Z,17.08
2022-09-06T00:26:41.267Z,17.04
2022-09-06T00:27:41.329Z,17.06
2022-09-06T00:28:41.286Z,17.01
2022-09-06T00:29:41.226Z,16.99
2022-09-06T00:30:41.287Z,16.94
2022-09-06T00:31:41.218Z,16.90
2022-09-06T00:32:41.254Z,16.93
2022-09-06T00:33:41.228Z,16.90
2022-09-06T00:34:41.227Z,16.84
2022-09-06T00:35:41.211Z,16.83
2022-09-06T00:36:41.220Z,16.83
2022-09-06T00:37:41.137Z,16.79
2022-09-06T00:38:41.172Z,16.76
2022-09-06T00:39:41.185Z,16.83
2022-09-06T00:40:41.147Z,16.79
2022-09-06T00:41:41.141Z,16.81
2022-09-06T00:42:41.133Z,16.79
2022-09-06T00:43:41.143Z,16.76
2022-09-06T00:44:41.099Z,16.79
2022-09-06T00:45:41.133Z,16.76
2022-09-06T00:46:41.127Z,16.66
2022-09-06T00:47:41.107Z,16.74
2022-09-06T00:48:41.072Z,16.69
2022-09-06T00:49:41.203Z,16.66
2022-09-06T00:50:41.749Z,16.69
2022-09-06T00:51:41.051Z,16.72
2022-09-06T00:52:41.043Z,16.76
2022-09-06T00:53:41.021Z,16.71
2022-09-06T00:54:41.054Z,16.66
2022-09-06T00:55:41.057Z,16.69
2022-09-06T00:56:41.041Z,16.68
2022-09-06T00:57:41.025Z,16.71
2022-09-06T00:58:41.008Z,16.68
2022-09-06T00:59:41.036Z,16.72
2022-09-06T01:00:41.024Z,16.69
2022-09-06T01:01:42.036Z,16.75
2022-09-06T01:02:41.162Z,16.84
2022-09-06T01:03:40.971Z,16.78
2022-09-06T01:04:41.790Z,16.74
2022-09-06T01:05:41.747Z,16.83
2022-09-06T01:06:40.920Z,16.76
2022-09-06T01:07:40.929Z,16.66
2022-09-06T01:08:41.088Z,16.65
2022-09-06T01:09:40.954Z,16.65
2022-09-06T01:10:40.936Z,16.64
2022-09-06T01:11:40.899Z,16.68
2022-09-06T01:12:40.920Z,16.60
2022-09-06T01:13:40.902Z,16.60
2022-09-06T01:14:40.951Z,16.58
2022-09-06T01:15:40.967Z,16.61
2022-09-06T01:16:40.904Z,16.51
2022-09-06T01:17:40.907Z,16.65
2022-09-06T01:18:40.861Z,16.58
2022-09-06T01:19:40.858Z,16.66
2022-09-06T01:20:40.894Z,16.76
2022-09-06T01:21:40.852Z,16.89
2022-09-06T01:22:40.816Z,16.99
2022-09-06T01:23:40.806Z,16.99
2022-09-06T01:24:40.806Z,16.99
2022-09-06T01:25:40.845Z,17.16
2022-09-06T01:26:40.878Z,17.24
2022-09-06T01:27:40.808Z,17.27
2022-09-06T01:28:40.787Z,17.29
2022-09-06T01:29:40.782Z,17.26
2022-09-06T01:30:40.860Z,17.26
2022-09-06T01:31:40.758Z,17.27
2022-09-06T01:32:40.734Z,17.29
2022-09-06T01:33:40.728Z,17.31
2022-09-06T01:34:40.715Z,17.36
2022-09-06T01:35:40.748Z,17.38
2022-09-06T01:36:54.398Z,17.42
2022-09-06T01:37:42.740Z,17.39
2022-09-06T01:38:40.783Z,17.41
2022-09-06T01:39:40.773Z,17.38
2022-09-06T01:40:40.680Z,17.49
2022-09-06T01:41:40.732Z,17.56
2022-09-06T01:42:40.688Z,17.49
2022-09-06T01:43:40.688Z,17.57
2022-09-06T01:44:40.679Z,17.52
2022-09-06T02:03:07.984Z,16.72
2022-09-06T02:04:08.114Z,16.58
2022-09-06T02:05:09.164Z,16.56
2022-09-06T02:06:09.121Z,16.57
2022-09-06T02:07:09.706Z,16.65
2022-09-06T02:08:09.091Z,16.66
2022-09-06T02:09:09.092Z,16.46
2022-09-06T02:10:09.711Z,16.50
2022-09-06T02:11:09.125Z,16.54
2022-09-06T02:12:09.138Z,16.49
2022-09-06T02:13:09.179Z,16.46
2022-09-06T02:14:09.065Z,16.51
2022-09-06T02:15:09.071Z,16.43
2022-09-06T02:16:09.037Z,16.43
2022-09-06T02:17:09.138Z,16.53
2022-09-06T02:18:09.025Z,16.50
2022-09-06T02:19:09.038Z,16.36
2022-09-06T02:20:09.623Z,16.49
2022-09-06T02:21:09.128Z,16.47
2022-09-06T02:22:09.013Z,16.47
2022-09-06T02:23:09.002Z,16.36
2022-09-06T02:24:43.157Z,16.47
2022-09-06T02:25:09.027Z,16.53
2022-09-06T02:26:09.077Z,16.51
2022-09-06T02:27:08.968Z,16.38
2022-09-06T02:28:08.995Z,16.47
2022-09-06T02:29:09.022Z,16.50
2022-09-06T02:30:09.011Z,16.42
2022-09-06T02:31:09.104Z,16.38
2022-09-06T02:32:08.970Z,16.50
2022-09-06T02:33:08.952Z,16.43
2022-09-06T02:34:08.961Z,16.43
2022-09-06T02:35:08.978Z,16.46
2022-09-06T02:36:09.033Z,16.42
2022-09-06T02:37:08.912Z,16.46
2022-09-06T02:38:08.904Z,16.47
2022-09-06T02:39:09.914Z,16.39
2022-09-06T02:40:08.965Z,16.35
2022-09-06T02:41:08.906Z,16.36
2022-09-06T02:42:08.928Z,16.41
2022-09-06T02:43:08.930Z,16.33
2022-09-06T02:44:08.879Z,16.24
2022-09-06T02:45:08.946Z,16.31
2022-09-06T02:46:08.965Z,16.26
2022-09-06T02:47:08.962Z,16.29
2022-09-06T02:48:08.869Z,16.24
2022-09-06T02:49:08.882Z,16.24
2022-09-06T02:50:08.860Z,16.28
2022-09-06T02:51:08.794Z,16.20
2022-09-06T02:52:08.827Z,16.21
2022-09-06T02:53:08.808Z,16.21
2022-09-06T02:54:08.812Z,16.23
2022-09-06T02:55:08.801Z,16.21
2022-09-06T02:56:08.773Z,16.17
2022-09-06T02:57:08.811Z,16.24
2022-09-06T02:58:08.763Z,16.20
2022-09-06T02:59:08.789Z,16.23
2022-09-06T03:00:08.793Z,16.28
2022-09-06T03:01:08.771Z,16.28
2022-09-06T03:02:08.769Z,16.32
2022-09-06T03:03:08.752Z,16.32
2022-09-06T03:04:08.750Z,16.33
2022-09-06T03:05:08.750Z,16.20
2022-09-06T03:06:08.682Z,16.17
2022-09-06T03:07:08.670Z,16.23
2022-09-06T03:08:08.686Z,16.21
2022-09-06T03:09:08.767Z,16.21
2022-09-06T03:10:08.701Z,16.26
2022-09-06T03:11:08.660Z,16.16
2022-09-06T03:12:08.624Z,16.09
2022-09-06T03:13:08.611Z,16.23
2022-09-06T03:14:08.650Z,16.20
2022-09-06T03:15:08.690Z,16.24
2022-09-06T03:16:08.637Z,16.17
2022-09-06T03:17:08.649Z,16.29
2022-09-06T03:18:08.619Z,16.21
2022-09-06T03:19:08.619Z,16.31
2022-09-06T03:20:08.601Z,16.32
2022-09-06T03:21:08.580Z,16.31
2022-09-06T03:22:08.622Z,16.38
2022-09-06T03:23:08.591Z,16.36
2022-09-06T03:24:08.555Z,16.36
2022-09-06T03:25:08.519Z,16.28
2022-09-06T03:26:08.511Z,16.33
2022-09-06T03:27:08.542Z,16.41
2022-09-06T03:28:08.536Z,16.28
2022-09-06T03:29:08.531Z,16.28
2022-09-06T03:30:08.527Z,16.26
2022-09-06T03:31:08.612Z,16.26
2022-09-06T03:32:08.472Z,16.21
2022-09-06T03:33:08.525Z,16.24
2022-09-06T03:34:11.133Z,16.28
2022-09-06T03:35:09.468Z,16.21
2022-09-06T03:36:08.485Z,16.26
2022-09-06T03:37:08.446Z,16.24
2022-09-06T03:38:09.469Z,16.13
2022-09-06T03:39:08.456Z,16.26
2022-09-06T03:40:08.480Z,16.26
2022-09-06T03:41:08.408Z,16.17
2022-09-06T03:42:08.457Z,16.24
2022-09-06T03:43:08.432Z,16.26
2022-09-06T03:44:08.424Z,16.20
2022-09-06T03:45:08.414Z,16.13
2022-09-06T03:46:08.401Z,16.32
2022-09-06T03:47:08.358Z,16.08
2022-09-06T04:02:35.050Z,15.90
2022-09-06T04:03:34.969Z,15.97
2022-09-06T04:04:34.972Z,15.94
2022-09-06T04:05:34.957Z,15.91
2022-09-06T04:06:34.972Z,15.97
2022-09-06T04:07:34.997Z,15.94
2022-09-06T04:08:36.081Z,15.98
2022-09-06T04:09:36.103Z,15.97
2022-09-06T04:10:36.070Z,15.97
2022-09-06T04:11:36.126Z,15.91
2022-09-06T04:12:36.095Z,15.73
2022-09-06T04:13:36.094Z,15.64
2022-09-06T04:14:36.066Z,15.62
2022-09-06T04:15:36.051Z,15.49
2022-09-06T04:16:36.081Z,15.57
2022-09-06T04:17:36.079Z,15.52
2022-09-06T04:18:36.018Z,15.57
2022-09-06T04:19:36.023Z,15.52
2022-09-06T04:20:36.030Z,15.42
2022-09-06T04:21:36.025Z,15.36
2022-09-06T04:22:35.989Z,15.44
2022-09-06T04:23:39.783Z,15.42
2022-09-06T04:24:36.953Z,15.40
2022-09-06T04:25:36.028Z,15.47
2022-09-06T04:26:36.725Z,15.44
2022-09-06T04:27:36.533Z,15.42
2022-09-06T04:28:35.956Z,15.39
2022-09-06T04:29:35.961Z,15.31
2022-09-06T04:30:36.063Z,15.31
2022-09-06T04:31:35.929Z,15.31
2022-09-06T04:32:35.886Z,15.31
2022-09-06T04:33:35.920Z,15.29
2022-09-06T04:34:35.895Z,15.37
2022-09-06T04:35:35.913Z,15.42
2022-09-06T04:36:35.893Z,15.37
2022-09-06T04:37:35.900Z,15.51
2022-09-06T04:38:35.904Z,15.39
2022-09-06T04:39:35.953Z,15.55
2022-09-06T04:40:35.954Z,15.49
2022-09-06T04:41:35.913Z,15.55
2022-09-06T04:42:35.862Z,15.61
2022-09-06T04:43:35.825Z,15.57
2022-09-06T04:44:35.910Z,15.67
2022-09-06T04:45:35.944Z,15.61
2022-09-06T04:46:35.824Z,15.62
2022-09-06T04:47:35.798Z,15.76
2022-09-06T04:48:35.819Z,15.68
2022-09-06T04:49:35.799Z,15.76
2022-09-06T04:50:35.814Z,15.76
2022-09-06T04:51:35.856Z,15.75
2022-09-06T04:52:35.800Z,15.76
2022-09-06T04:53:35.806Z,15.72
2022-09-06T04:54:35.826Z,15.80
2022-09-06T04:55:35.841Z,15.70
2022-09-06T04:56:35.859Z,15.77
2022-09-06T04:57:38.183Z,15.76
2022-09-06T04:58:36.764Z,15.88
2022-09-06T04:59:35.789Z,16.00
2022-09-06T05:00:35.692Z,15.94
2022-09-06T05:01:35.832Z,15.98
2022-09-06T05:02:35.794Z,15.97
2022-09-06T05:03:35.817Z,15.98
2022-09-06T05:04:35.724Z,16.04
2022-09-06T05:05:35.806Z,16.00
2022-09-06T05:06:35.731Z,16.08
2022-09-06T05:07:35.805Z,16.12
2022-09-06T05:08:35.700Z,16.15
2022-09-06T05:09:35.788Z,16.23
2022-09-06T05:10:35.749Z,16.15
2022-09-06T05:11:35.727Z,16.23
2022-09-06T05:12:35.682Z,16.24
2022-09-06T05:13:35.625Z,16.35
2022-09-06T05:14:35.649Z,16.38
2022-09-06T05:15:35.661Z,16.39
2022-09-06T05:16:35.658Z,16.26
2022-09-06T05:17:35.621Z,16.26
2022-09-06T05:18:35.633Z,16.21
2022-09-06T05:19:35.639Z,16.32
2022-09-06T05:20:35.560Z,16.16
2022-09-06T05:21:35.594Z,16.28
2022-09-06T05:22:35.555Z,16.29
2022-09-06T05:23:36.227Z,16.29
2022-09-06T05:24:36.610Z,16.35
2022-09-06T05:25:35.547Z,16.32
2022-09-06T05:26:35.517Z,16.35
2022-09-06T05:27:35.528Z,16.31
2022-09-06T05:28:35.549Z,16.38
2022-09-06T05:29:35.545Z,16.47
2022-09-06T05:30:35.527Z,16.39
2022-09-06T05:31:35.591Z,16.28
2022-09-06T05:32:35.462Z,16.20
2022-09-06T05:33:35.511Z,16.00
2022-09-06T05:34:35.524Z,15.92
2022-09-06T05:35:35.536Z,15.98
2022-09-06T05:36:35.411Z,15.98
2022-09-06T05:37:35.431Z,15.98
2022-09-06T05:38:35.447Z,15.97
2022-09-06T05:39:35.483Z,16.01
2022-09-06T05:40:35.432Z,16.13
2022-09-06T05:41:35.442Z,16.20
2022-09-06T05:42:35.441Z,16.29
2022-09-06T05:43:36.733Z,16.47
2022-09-06T05:44:35.426Z,16.49
2022-09-06T05:45:35.415Z,16.58
2022-09-06T05:46:35.415Z,16.54
2022-09-06T05:47:35.407Z,16.60
2022-09-06T05:48:37.217Z,16.61
2022-09-06T05:49:36.342Z,16.72
2022-09-06T05:50:35.405Z,16.81
2022-09-06T05:51:36.246Z,16.87
2022-09-06T05:52:35.376Z,16.87
2022-09-06T05:53:35.338Z,16.99
2022-09-06T05:54:35.443Z,16.99
2022-09-06T05:55:35.283Z,17.14
2022-09-06T05:56:35.383Z,17.09
2022-09-06T05:57:35.356Z,17.16
2022-09-06T05:58:35.277Z,17.26
2022-09-06T05:59:35.287Z,17.26
2022-09-06T06:00:35.320Z,17.12
2022-09-06T06:01:35.395Z,17.22
2022-09-06T06:02:35.327Z,17.19
2022-09-06T06:03:35.259Z,17.27
2022-09-06T06:04:35.213Z,17.27
2022-09-06T06:05:35.365Z,17.31
2022-09-06T06:06:35.240Z,17.30
2022-09-06T06:07:35.182Z,17.27
2022-09-06T06:08:35.211Z,17.36
2022-09-06T06:09:35.202Z,17.29
2022-09-06T06:10:38.443Z,17.27
2022-09-06T06:11:36.208Z,17.26
2022-09-06T06:12:35.180Z,17.16
2022-09-06T06:13:35.154Z,17.09
2022-09-06T06:14:35.214Z,17.11
2022-09-06T06:15:35.143Z,17.16
2022-09-06T06:16:35.153Z,17.22
2022-09-06T06:17:35.116Z,17.22
2022-09-06T06:18:35.110Z,17.27
2022-09-06T06:19:35.147Z,17.14
2022-09-06T06:20:35.134Z,17.16
2022-09-06T06:21:35.107Z,17.14
2022-09-06T06:22:35.093Z,17.20
2022-09-06T06:23:35.127Z,17.19
2022-09-06T06:24:35.038Z,17.31
2022-09-06T06:25:35.046Z,17.33
2022-09-06T06:26:35.058Z,17.36
2022-09-06T06:27:35.083Z,17.39
2022-09-06T06:28:35.046Z,17.52
2022-09-06T06:29:35.041Z,17.68
2022-09-06T06:30:35.039Z,17.79
2022-09-06T06:31:35.117Z,17.83
2022-09-06T06:32:35.011Z,17.85
2022-09-06T06:33:35.002Z,17.85
2022-09-06T06:34:34.973Z,17.85
2022-09-06T06:35:38.303Z,17.79
2022-09-06T06:36:37.060Z,17.92
2022-09-06T06:37:34.967Z,17.98
2022-09-06T06:38:34.950Z,18.00
2022-09-06T06:39:34.984Z,18.01
2022-09-06T06:40:34.983Z,18.03
2022-09-06T06:41:34.944Z,17.92
2022-09-06T06:43:09.157Z,17.89
2022-09-06T06:43:34.870Z,18.00
2022-09-06T06:44:34.899Z,17.97
2022-09-06T06:45:34.930Z,18.04
2022-09-06T06:46:34.884Z,18.03
2022-09-06T06:47:34.890Z,18.18
2022-09-06T06:48:34.872Z,18.20
2022-09-06T06:49:34.855Z,18.23
2022-09-06T06:50:34.855Z,18.33
2022-09-06T06:51:35.382Z,18.33
2022-09-06T06:52:34.849Z,18.35
2022-09-06T06:53:34.873Z,18.41
2022-09-06T06:54:34.857Z,18.49
2022-09-06T06:55:34.824Z,18.44
2022-09-06T06:56:34.869Z,18.53
2022-09-06T06:57:34.806Z,18.63
2022-09-06T06:58:34.804Z,18.66
2022-09-06T06:59:34.803Z,18.71
2022-09-06T07:00:34.855Z,18.81
2022-09-06T07:01:34.949Z,18.83
2022-09-06T07:02:34.766Z,18.86
2022-09-06T07:03:34.777Z,18.93
2022-09-06T07:04:34.788Z,18.92
2022-09-06T07:07:39.495Z,19.19
2022-09-06T07:08:34.735Z,19.21
2022-09-06T07:10:36.730Z,19.44
2022-09-06T07:11:34.697Z,19.54
2022-09-06T07:12:34.703Z,19.63
2022-09-06T07:13:34.674Z,19.55
2022-09-06T07:14:34.737Z,19.59
2022-09-06T07:15:34.679Z,19.55
2022-09-06T07:16:34.794Z,19.64
2022-09-06T07:17:34.686Z,19.59
2022-09-06T07:18:34.652Z,19.55
2022-09-06T07:22:35.628Z,19.54
2022-09-06T07:24:36.636Z,19.45
2022-09-06T07:26:08.708Z,19.39
2022-09-06T07:26:34.658Z,19.33
2022-09-06T07:27:50.463Z,19.67
2022-09-06T07:28:36.551Z,19.56
2022-09-06T07:29:34.584Z,19.58
2022-09-06T07:30:34.626Z,19.62
2022-09-06T07:32:36.553Z,19.86
2022-09-06T07:33:34.542Z,20.28
2022-09-06T07:34:35.515Z,20.34
2022-09-06T07:35:34.564Z,20.81
2022-09-06T07:36:34.504Z,20.92
2022-09-06T07:37:34.544Z,21.25
2022-09-06T07:38:34.527Z,21.61
2022-09-06T07:39:34.523Z,21.80
2022-09-06T07:40:34.531Z,21.92
2022-09-06T07:41:34.477Z,22.08
2022-09-06T07:42:36.413Z,22.14
2022-09-06T07:43:35.483Z,22.32
2022-09-06T07:44:34.461Z,22.15
2022-09-06T07:45:34.493Z,22.15
2022-09-06T07:46:35.518Z,22.17
2022-09-06T07:48:36.447Z,22.15
2022-09-06T07:49:34.963Z,22.04
2022-09-06T07:50:50.615Z,22.14
2022-09-06T07:51:36.425Z,22.00
2022-09-06T07:53:36.765Z,21.79
2022-09-06T07:54:34.495Z,22.02
2022-09-06T07:55:34.438Z,22.10
2022-09-06T07:56:34.411Z,21.83
2022-09-06T07:57:34.407Z,21.51
2022-09-06T07:58:34.408Z,21.37
2022-09-06T07:59:34.337Z,21.21
2022-09-06T08:00:34.492Z,21.21
2022-09-06T08:01:34.449Z,21.29
2022-09-06T08:02:34.388Z,21.76
2022-09-06T08:03:34.347Z,22.93
2022-09-06T08:04:34.312Z,23.25
2022-09-06T08:09:36.298Z,25.17
2022-09-06T08:10:34.306Z,26.05
2022-09-06T08:11:34.309Z,26.47
2022-09-06T08:12:34.276Z,25.33
2022-09-06T08:13:34.252Z,24.13
2022-09-06T08:14:34.255Z,24.01
2022-09-06T08:15:34.256Z,24.26
2022-09-06T08:16:34.264Z,24.38
2022-09-06T08:17:34.230Z,24.68
2022-09-06T08:18:34.210Z,24.76
2022-09-06T08:19:34.215Z,24.40
2022-09-06T08:20:34.210Z,24.23
2022-09-06T08:21:34.170Z,24.36
2022-09-06T08:22:35.406Z,24.39
2022-09-06T08:23:34.187Z,24.32
2022-09-06T08:24:35.102Z,24.10
2022-09-06T08:26:07.737Z,23.68
2022-09-06T08:26:34.283Z,23.43
2022-09-06T08:27:34.814Z,23.65
2022-09-06T08:28:34.667Z,23.71
2022-09-06T08:29:34.222Z,23.99
2022-09-06T08:30:34.182Z,24.10
2022-09-06T08:31:34.318Z,24.23
2022-09-06T08:32:34.276Z,24.40
2022-09-06T08:33:34.902Z,24.63
2022-09-06T08:34:34.109Z,24.58
2022-09-06T08:35:34.051Z,24.60
2022-09-06T08:36:34.147Z,24.66
2022-09-06T08:37:34.064Z,24.80
2022-09-06T08:38:34.539Z,24.84
2022-09-06T08:39:34.167Z,25.04
2022-09-06T08:40:34.076Z,25.06
2022-09-06T08:41:34.068Z,24.89
2022-09-06T08:42:34.120Z,25.04
2022-09-06T08:43:34.882Z,25.07
2022-09-06T08:45:36.092Z,25.35
2022-09-06T08:46:34.078Z,25.43
2022-09-06T08:47:34.070Z,26.34
2022-09-06T08:48:34.993Z,27.60
2022-09-06T08:49:34.666Z,28.23
2022-09-06T08:50:33.981Z,28.75
2022-09-06T08:51:38.387Z,28.76
2022-09-06T08:52:34.977Z,28.79
2022-09-06T08:53:33.953Z,29.36
2022-09-06T08:54:34.836Z,30.37
2022-09-06T08:55:35.876Z,31.09
2022-09-06T08:56:35.894Z,30.87
2022-09-06T08:57:38.240Z,30.99
2022-09-06T08:58:38.683Z,31.06
2022-09-06T08:59:33.967Z,30.59
2022-09-06T09:00:35.694Z,31.09
2022-09-06T09:01:34.041Z,31.62
2022-09-06T09:02:33.949Z,31.55
2022-09-06T09:03:33.890Z,31.64
2022-09-06T09:04:33.918Z,31.65
2022-09-06T09:05:33.831Z,32.08
2022-09-06T09:06:33.859Z,31.81
2022-09-06T09:07:33.834Z,32.11
2022-09-06T09:08:33.862Z,32.48
2022-09-06T09:09:33.917Z,32.85
2022-09-06T09:10:33.836Z,33.23
2022-09-06T09:11:33.871Z,32.96
2022-09-06T09:12:33.827Z,33.15
2022-09-06T09:13:34.896Z,33.67
2022-09-06T09:14:33.945Z,33.76
2022-09-06T09:15:39.575Z,33.84
2022-09-06T09:16:35.928Z,33.50
2022-09-06T09:17:33.868Z,33.46
2022-09-06T09:18:34.410Z,33.71
2022-09-06T09:19:33.846Z,34.11
2022-09-06T09:20:33.819Z,34.36
2022-09-06T09:21:33.741Z,33.94
2022-09-06T09:22:33.819Z,33.65
2022-09-06T09:23:33.718Z,33.55
2022-09-06T09:24:33.781Z,33.65
2022-09-06T09:25:33.707Z,33.87
2022-09-06T09:26:34.725Z,33.39
2022-09-06T09:27:33.712Z,33.30
2022-09-06T09:28:33.717Z,31.87
2022-09-06T09:29:36.409Z,31.69
2022-09-06T09:30:50.279Z,32.37
2022-09-06T09:31:35.803Z,32.95
2022-09-06T09:32:33.719Z,33.23
2022-09-06T09:33:33.778Z,32.55
2022-09-06T09:34:33.873Z,32.64
2022-09-06T09:35:34.546Z,32.83
2022-09-06T09:36:33.667Z,32.93
2022-09-06T09:37:51.062Z,32.43
2022-09-06T09:38:35.633Z,31.87
2022-09-06T09:39:33.749Z,31.78
2022-09-06T09:40:33.664Z,31.07
2022-09-06T09:41:33.651Z,31.46
2022-09-06T09:42:33.606Z,31.96
2022-09-06T09:43:33.651Z,31.36
2022-09-06T09:44:33.664Z,30.97
2022-09-06T09:45:33.665Z,31.52
2022-09-06T09:46:33.671Z,31.59
2022-09-06T09:47:33.608Z,31.65
2022-09-06T09:48:33.576Z,31.59
2022-09-06T09:49:33.586Z,31.71
2022-09-06T09:50:33.561Z,31.28
2022-09-06T09:51:33.621Z,30.50
2022-09-06T09:52:33.568Z,31.03
2022-09-06T09:53:33.642Z,31.76
2022-09-06T09:54:33.532Z,32.37
2022-09-06T09:55:33.593Z,32.43
2022-09-06T09:56:33.563Z,32.31
2022-09-06T09:57:33.502Z,32.36
2022-09-06T09:58:33.598Z,32.18
2022-09-06T09:59:33.499Z,32.33
2022-09-06T10:00:33.565Z,32.34
2022-09-06T10:01:33.502Z,31.85
2022-09-06T10:02:33.485Z,31.28
2022-09-06T10:03:34.145Z,31.22
2022-09-06T10:04:48.770Z,30.78
2022-09-06T10:05:35.501Z,30.50
2022-09-06T10:07:35.438Z,30.94
2022-09-06T10:08:33.450Z,31.09
2022-09-06T10:09:33.427Z,31.74
2022-09-06T10:10:33.404Z,32.18
2022-09-06T10:11:33.482Z,31.59
2022-09-06T10:12:33.708Z,31.39
2022-09-06T10:13:33.450Z,31.69
2022-09-06T10:14:33.402Z,32.27
2022-09-06T10:15:33.451Z,32.68
2022-09-06T10:16:33.439Z,32.78
2022-09-06T10:17:33.457Z,31.93
2022-09-06T10:18:33.426Z,31.96
2022-09-06T10:19:33.398Z,32.03
2022-09-06T10:20:33.436Z,32.64
2022-09-06T10:21:33.351Z,33.17
2022-09-06T10:22:33.362Z,33.61
2022-09-06T10:24:35.343Z,33.28
2022-09-06T10:25:33.305Z,32.34
2022-09-06T10:26:33.922Z,31.81
2022-09-06T10:27:33.279Z,32.36
2022-09-06T10:28:34.308Z,32.87
2022-09-06T10:29:33.311Z,32.37
2022-09-06T10:30:33.335Z,33.00
2022-09-06T10:31:33.330Z,33.19
2022-09-06T10:32:33.289Z,33.17
2022-09-06T10:33:33.357Z,30.48
2022-09-06T10:34:33.294Z,29.97
2022-09-06T10:35:33.280Z,30.54
2022-09-06T10:36:33.319Z,30.13
2022-09-06T10:37:33.287Z,29.94
2022-09-06T10:38:33.290Z,29.71
2022-09-06T10:39:33.356Z,29.69
2022-09-06T10:40:33.241Z,30.55
2022-09-06T10:41:33.276Z,30.80
2022-09-06T10:42:33.237Z,31.25
2022-09-06T10:43:33.187Z,31.71
2022-09-06T10:44:34.237Z,32.33
2022-09-06T10:45:33.216Z,31.64
2022-09-06T10:46:33.360Z,30.24
2022-09-06T10:47:33.174Z,30.12
2022-09-06T10:48:33.225Z,30.66
2022-09-06T10:49:33.208Z,30.23
2022-09-06T10:50:33.186Z,30.84
2022-09-06T10:51:33.201Z,30.53
2022-09-06T10:52:33.212Z,31.15
2022-09-06T10:53:33.193Z,31.90
2022-09-06T10:54:33.212Z,31.55
2022-09-06T10:55:33.120Z,30.68
2022-09-06T10:56:33.117Z,30.88
2022-09-06T11:00:33.108Z,30.75
2022-09-06T11:01:33.140Z,31.49
2022-09-06T11:02:33.455Z,31.93
2022-09-06T11:06:34.045Z,33.01
2022-09-06T11:07:33.066Z,32.96
2022-09-06T11:08:48.659Z,32.87
2022-09-06T11:09:35.025Z,33.01
2022-09-06T11:10:32.999Z,33.22
2022-09-06T11:11:33.018Z,32.78
2022-09-06T11:12:33.013Z,32.49
2022-09-06T11:13:32.988Z,31.56
2022-09-06T11:14:32.964Z,31.59
2022-09-06T11:15:33.141Z,31.46
2022-09-06T11:16:32.977Z,31.97
2022-09-06T11:17:33.007Z,32.07
2022-09-06T11:18:32.970Z,32.07
2022-09-06T11:19:32.988Z,32.31
2022-09-06T11:20:32.935Z,31.20
2022-09-06T11:21:32.976Z,30.24
2022-09-06T11:22:32.940Z,29.72
2022-09-06T11:23:32.958Z,28.94
2022-09-06T11:24:32.952Z,28.81
2022-09-06T11:25:32.909Z,29.05
2022-09-06T11:26:32.900Z,29.63
2022-09-06T11:27:32.907Z,29.50
2022-09-06T11:28:32.891Z,29.63
2022-09-06T11:29:32.873Z,29.73
2022-09-06T11:30:32.877Z,29.88
2022-09-06T11:32:34.920Z,30.61
2022-09-06T11:33:32.879Z,30.39
2022-09-06T11:34:32.855Z,29.66
2022-09-06T11:35:32.832Z,30.12
2022-09-06T11:36:32.854Z,30.51
2022-09-06T11:37:32.900Z,30.15
2022-09-06T11:38:32.845Z,30.47
2022-09-06T11:40:34.811Z,30.03
2022-09-06T11:41:33.806Z,30.06
2022-09-06T11:42:32.826Z,30.15
2022-09-06T11:43:32.868Z,30.99
2022-09-06T11:44:32.821Z,31.18
2022-09-06T11:45:32.812Z,31.56
2022-09-06T11:46:32.793Z,31.65
2022-09-06T11:47:32.749Z,31.33
2022-09-06T11:48:32.758Z,30.73
2022-09-06T11:49:32.761Z,31.10
2022-09-06T11:50:32.841Z,31.25
2022-09-06T11:51:32.737Z,30.69
2022-09-06T11:52:32.770Z,30.77
2022-09-06T11:53:32.771Z,30.78
2022-09-06T11:54:32.745Z,30.99
2022-09-06T11:55:32.706Z,31.54
2022-09-06T11:56:32.718Z,31.76
2022-09-06T11:57:32.695Z,31.66
2022-09-06T11:58:33.708Z,31.56
2022-09-06T11:59:32.740Z,31.02
2022-09-06T12:00:32.739Z,30.32
2022-09-06T12:01:32.669Z,29.90
2022-09-06T12:02:32.805Z,30.18
2022-09-06T12:04:34.720Z,30.47
2022-09-06T12:05:32.726Z,30.80
2022-09-06T12:06:32.656Z,31.47
2022-09-06T12:07:32.696Z,31.06
2022-09-06T12:08:32.681Z,31.14
2022-09-06T12:09:32.706Z,31.37
2022-09-06T12:10:32.718Z,31.59
2022-09-06T12:11:32.614Z,31.71
2022-09-06T12:12:32.692Z,31.74
2022-09-06T12:13:32.662Z,32.14
2022-09-06T12:14:32.604Z,32.31
2022-09-06T12:15:32.627Z,31.92
2022-09-06T12:16:32.603Z,31.27
2022-09-06T12:17:32.592Z,31.47
2022-09-06T12:18:32.582Z,31.99
2022-09-06T12:19:32.559Z,32.43
2022-09-06T12:20:32.575Z,32.86
2022-09-06T12:21:32.553Z,33.27
2022-09-06T12:22:32.561Z,33.14
2022-09-06T12:23:32.545Z,32.64
2022-09-06T12:24:32.565Z,31.70
2022-09-06T12:25:32.516Z,31.49
2022-09-06T12:26:32.649Z,31.18
2022-09-06T12:27:32.573Z,31.33
2022-09-06T12:28:32.500Z,31.37
2022-09-06T12:29:32.536Z,30.97
2022-09-06T12:30:32.864Z,30.96
2022-09-06T12:31:32.781Z,31.18
2022-09-06T12:32:36.626Z,31.71
2022-09-06T12:33:33.545Z,31.94
2022-09-06T12:34:35.265Z,32.00
2022-09-06T12:36:35.498Z,32.19
2022-09-06T12:37:32.450Z,32.01
2022-09-06T12:38:32.449Z,32.31
2022-09-06T12:39:32.494Z,32.68
2022-09-06T12:40:32.505Z,32.71
2022-09-06T12:41:32.579Z,31.89
2022-09-06T12:42:32.426Z,32.11
2022-09-06T12:43:32.467Z,32.93
2022-09-06T12:44:32.395Z,33.36
2022-09-06T12:45:32.395Z,33.69
2022-09-06T12:46:32.426Z,34.06
2022-09-06T12:47:32.384Z,33.92
2022-09-06T12:48:32.473Z,33.61
2022-09-06T12:49:32.366Z,33.59
2022-09-06T12:50:33.263Z,33.23
2022-09-06T12:51:32.354Z,33.22
2022-09-06T12:52:32.417Z,33.30
2022-09-06T12:53:32.432Z,32.34
2022-09-06T12:54:32.378Z,31.39
2022-09-06T12:55:32.343Z,30.88
2022-09-06T12:56:32.335Z,30.35
2022-09-06T12:57:32.386Z,30.46
2022-09-06T12:58:32.359Z,30.32
2022-09-06T12:59:32.398Z,30.39
2022-09-06T13:00:32.379Z,30.92
2022-09-06T13:01:32.406Z,31.40
2022-09-06T13:02:32.427Z,31.44
2022-09-06T13:03:32.255Z,31.77
2022-09-06T13:04:32.304Z,32.14
2022-09-06T13:05:32.258Z,32.71
2022-09-06T13:06:32.258Z,33.23
2022-09-06T13:07:32.296Z,33.40
2022-09-06T13:08:32.233Z,33.50
2022-09-06T13:09:32.307Z,33.59
2022-09-06T13:10:32.245Z,33.49
2022-09-06T13:11:32.280Z,33.24
2022-09-06T13:12:32.246Z,33.58
2022-09-06T13:13:32.210Z,33.32
2022-09-06T13:14:32.285Z,33.31
2022-09-06T13:15:32.224Z,33.17
2022-09-06T13:16:32.221Z,33.28
2022-09-06T13:17:32.219Z,33.52
2022-09-06T13:18:32.288Z,33.34
2022-09-06T13:19:32.305Z,33.02
2022-09-06T13:20:32.204Z,32.75
2022-09-06T13:21:32.153Z,32.71
2022-09-06T13:22:32.205Z,32.59
2022-09-06T13:23:32.195Z,32.38
2022-09-06T13:24:32.197Z,32.30
2022-09-06T13:25:32.180Z,32.18
2022-09-06T13:26:32.262Z,32.01
2022-09-06T13:27:32.121Z,31.93
2022-09-06T13:28:32.089Z,31.87
2022-09-06T13:29:32.118Z,31.84
2022-09-06T13:30:32.096Z,31.73
2022-09-06T13:31:32.220Z,31.78
2022-09-06T13:32:32.106Z,31.80
2022-09-06T13:33:33.011Z,31.71
2022-09-06T13:34:32.114Z,31.77
2022-09-06T13:35:32.079Z,31.73
2022-09-06T13:36:32.141Z,31.77
2022-09-06T13:37:32.062Z,31.69
2022-09-06T13:38:32.078Z,31.59
2022-09-06T13:39:32.118Z,31.73
2022-09-06T13:40:32.073Z,31.74
2022-09-06T13:41:32.043Z,31.56
2022-09-06T13:42:32.080Z,31.03
2022-09-06T13:43:31.999Z,31.46
2022-09-06T13:44:31.994Z,31.71
2022-09-06T13:45:32.029Z,31.66
2022-09-06T13:46:32.071Z,31.14
2022-09-06T13:47:32.028Z,31.17
2022-09-06T13:48:31.992Z,31.20
2022-09-06T13:49:31.970Z,31.28
2022-09-06T13:50:31.971Z,31.12
2022-09-06T13:51:31.962Z,31.49